Time;durP1;ratioP1;P1;durP2;ratioP2;P2;SDS_P1;SDS_P2;PMS_P1;PMS_P2;Temp;Humidity;BMP_temperature;BMP_pressure;BME280_temperature;BME280_humidity;BME280_pressure;Samples;Min_cycle;Max_cycle;Signal;HPM_P1;HPM_P2
2022/01/14 00:03:42;;;;;;;18.40;10.50;;;;;;;3.12;88.55;100683.91;208601;1319;140431;-76
2022/01/14 00:08:45;;;;;;;25.70;14.20;;;;;;;3.18;88.35;100681.86;207702;1318;140498;-75
2022/01/14 00:13:59;;;;;;;22.70;12.50;;;;;;;3.21;88.39;100679.58;208050;1318;140808;-74
2022/01/14 00:19:06;;;;;;;30.90;18.70;;;;;;;3.19;88.36;100679.29;208278;1318;141227;-72
2022/01/14 00:34:41;;;;;;;23.90;13.00;;;;;;;3.18;88.34;100679.98;207903;1316;140349;-72
2022/01/14 00:39:46;;;;;;;21.50;13.10;;;;;;;3.13;88.24;100668.02;207522;1316;140324;-73
2022/01/14 00:44:54;;;;;;;26.90;14.90;;;;;;;3.12;88.19;100654.97;207468;1316;141054;-71
2022/01/14 00:49:57;;;;;;;27.90;17.00;;;;;;;3.09;88.52;100659.84;206865;1318;140720;-72
2022/01/14 00:55:02;;;;;;;37.20;16.60;;;;;;;3.07;88.61;100662.34;208040;1315;141882;-70
2022/01/14 01:00:05;;;;;;;19.40;12.20;;;;;;;3.09;88.44;100658.09;207006;1316;140517;-76
2022/01/14 01:05:14;;;;;;;20.90;14.10;;;;;;;3.09;88.46;100653.52;207253;1316;141832;-74
2022/01/14 01:10:23;;;;;;;27.80;15.70;;;;;;;3.08;88.52;100664.12;207984;1315;141301;-77
2022/01/14 01:15:26;;;;;;;25.00;12.20;;;;;;;3.08;88.54;100661.15;207408;1316;140516;-76
2022/01/14 01:20:29;;;;;;;25.80;14.50;;;;;;;3.10;88.58;100648.88;207060;1317;143271;-70
2022/01/14 01:25:40;;;;;;;29.70;16.30;;;;;;;3.13;88.76;100647.46;207228;1317;152571;-75
2022/01/14 01:31:02;;;;;;;17.10;10.50;;;;;;;3.12;88.76;100632.08;207013;1318;140986;-74
2022/01/14 01:36:05;;;;;;;25.20;13.30;;;;;;;3.10;88.59;100629.73;207693;1317;142796;-71
2022/01/14 01:41:11;;;;;;;17.10;12.30;;;;;;;3.05;88.75;100624.98;208619;1315;142508;-73
2022/01/14 01:46:15;;;;;;;24.70;11.50;;;;;;;3.03;88.77;100622.48;207344;1319;140536;-73
2022/01/14 01:51:21;;;;;;;20.50;11.30;;;;;;;3.07;88.75;100615.06;209172;1316;141864;-71
2022/01/14 01:56:26;;;;;;;23.20;13.40;;;;;;;3.08;88.74;100614.16;208080;1317;141468;-73
2022/01/14 02:01:30;;;;;;;22.20;12.60;;;;;;;3.09;88.65;100596.12;207664;1318;140866;-74
2022/01/14 02:06:34;;;;;;;19.30;11.50;;;;;;;3.11;88.68;100589.41;208995;1319;140751;-74
2022/01/14 02:11:37;;;;;;;16.90;11.20;;;;;;;3.12;88.62;100575.25;208145;1320;145430;-73
2022/01/14 02:17:32;;;;;;;23.60;10.90;;;;;;;3.12;88.69;100569.28;208197;1316;142180;-71
2022/01/14 02:22:11;;;;;;;19.10;10.90;;;;;;;3.13;88.66;100557.70;208313;1316;141905;-67
2022/01/14 02:27:16;;;;;;;23.50;11.30;;;;;;;3.12;88.61;100548.19;207623;1316;141640;-71
2022/01/14 02:32:22;;;;;;;22.40;12.30;;;;;;;3.11;88.74;100538.77;207173;1315;141763;-71
2022/01/14 02:37:35;;;;;;;18.30;9.70;;;;;;;3.13;88.53;100531.39;207950;1316;142039;-69
2022/01/14 02:42:40;;;;;;;17.40;11.80;;;;;;;3.12;88.85;100531.03;207564;1317;141860;-72
2022/01/14 02:47:44;;;;;;;19.60;11.50;;;;;;;3.10;88.66;100516.77;206948;1316;141184;-73
2022/01/14 02:58:12;;;;;;;23.80;11.60;;;;;;;3.09;88.56;100509.48;207051;1315;162765;-72
2022/01/14 03:03:22;;;;;;;21.20;12.90;;;;;;;3.05;88.84;100511.48;207058;1316;142860;-73
2022/01/14 03:08:25;;;;;;;25.40;14.20;;;;;;;3.02;88.87;100500.90;207720;1316;141140;-74
2022/01/14 03:13:28;;;;;;;31.80;14.30;;;;;;;3.00;88.83;100493.83;207527;1316;140765;-73
2022/01/14 03:18:44;;;;;;;28.40;15.20;;;;;;;2.99;88.66;100495.14;207062;1316;141555;-73
2022/01/14 03:23:52;;;;;;;25.80;14.40;;;;;;;2.95;88.68;100483.30;208005;1316;140820;-69
2022/01/14 03:28:55;;;;;;;19.50;13.00;;;;;;;2.92;88.64;100480.50;207150;1316;140919;-72
2022/01/14 03:33:57;;;;;;;23.70;13.70;;;;;;;2.95;88.93;100465.61;207402;1316;142794;-73
2022/01/14 03:39:05;;;;;;;26.50;13.90;;;;;;;2.94;88.96;100450.90;207578;1315;141237;-76
2022/01/14 03:44:09;;;;;;;23.50;13.30;;;;;;;2.94;88.80;100439.31;207377;1316;140988;-77
2022/01/14 03:49:12;;;;;;;24.60;13.80;;;;;;;2.94;88.85;100436.88;208271;1316;139960;-77
2022/01/14 03:54:16;;;;;;;25.40;14.00;;;;;;;2.93;88.87;100422.92;208018;1317;141916;-70
2022/01/14 03:59:19;;;;;;;27.60;14.60;;;;;;;2.97;88.82;100423.90;207181;1316;141343;-70
2022/01/14 04:04:22;;;;;;;21.80;14.60;;;;;;;2.98;89.02;100417.45;209621;1316;140669;-72
2022/01/14 04:09:25;;;;;;;26.40;15.50;;;;;;;2.98;88.81;100424.65;208183;1316;140812;-73
2022/01/14 04:19:34;;;;;;;27.50;16.00;;;;;;;2.99;88.66;100443.29;209202;1319;142313;-77
2022/01/14 04:24:40;;;;;;;25.70;13.70;;;;;;;3.02;88.89;100441.02;208343;1316;140061;-74
2022/01/14 04:29:44;;;;;;;20.80;13.60;;;;;;;3.09;88.63;100444.04;207930;1320;140417;-76
2022/01/14 04:34:48;;;;;;;22.80;15.90;;;;;;;3.14;88.59;100438.19;208037;1317;141432;-70
2022/01/14 04:39:50;;;;;;;26.90;16.80;;;;;;;3.17;88.69;100426.11;207907;1317;140779;-76
2022/01/14 04:44:56;;;;;;;19.10;11.00;;;;;;;3.17;88.40;100437.83;206896;1318;142340;-75
2022/01/14 04:50:00;;;;;;;20.90;13.00;;;;;;;3.17;88.58;100427.98;207308;1319;142210;-77
2022/01/14 04:55:03;;;;;;;24.80;12.80;;;;;;;3.16;88.57;100421.86;207631;1319;140312;-77
2022/01/14 05:00:35;;;;;;;;;;;;;;;;;;;;;
2022/01/14 05:05:44;;;;;;;19.80;12.10;;;;;;;3.18;88.47;100412.80;207150;1316;141741;-73
2022/01/14 05:11:02;;;;;;;18.60;11.40;;;;;;;3.15;88.64;100405.89;207447;1316;142258;-76
2022/01/14 05:16:05;;;;;;;;;;;;;;;3.18;88.69;100402.27;207619;1316;140183;-75
2022/01/14 05:21:08;;;;;;;17.70;9.10;;;;;;;3.15;88.68;100398.91;208067;1316;127323;-73
2022/01/14 05:26:12;;;;;;;23.20;11.70;;;;;;;3.13;88.85;100391.41;207430;1318;142903;-74
2022/01/14 05:31:14;;;;;;;19.40;11.60;;;;;;;3.15;88.66;100377.90;207971;1322;142389;-74
2022/01/14 05:36:21;;;;;;;17.00;9.40;;;;;;;3.18;88.82;100366.77;207025;1317;154524;-74
2022/01/14 05:41:24;;;;;;;20.60;10.00;;;;;;;3.18;88.96;100363.27;208241;1316;141037;-75
2022/01/14 05:46:27;;;;;;;19.90;10.70;;;;;;;3.20;88.79;100365.14;207159;1316;142192;-71
2022/01/14 05:51:30;;;;;;;16.80;9.40;;;;;;;3.22;88.99;100369.38;207142;1316;143098;-72
2022/01/14 05:56:53;;;;;;;20.20;10.50;;;;;;;3.21;89.05;100375.80;206341;1317;2896584;-75
2022/01/14 06:01:59;;;;;;;15.20;8.90;;;;;;;3.24;88.70;100381.26;207620;1318;235473;-72
2022/01/14 06:07:03;;;;;;;15.10;9.00;;;;;;;3.28;88.91;100361.13;207590;1316;140145;-74
2022/01/14 06:12:07;;;;;;;14.50;11.10;;;;;;;3.28;88.80;100346.70;208276;1316;142390;-69
2022/01/14 06:17:16;;;;;;;16.60;9.80;;;;;;;3.28;88.40;100354.24;207177;1316;142260;-72
2022/01/14 06:22:25;;;;;;;20.90;9.00;;;;;;;3.28;88.76;100348.45;208957;1317;141254;-72
2022/01/14 06:27:32;;;;;;;15.50;10.20;;;;;;;3.22;88.41;100345.27;209422;1316;141333;-73
2022/01/14 06:32:46;;;;;;;23.60;12.30;;;;;;;3.20;88.63;100346.14;208600;1316;141109;-76
2022/01/14 06:37:57;;;;;;;11.90;8.30;;;;;;;3.21;88.46;100336.98;207941;1316;142252;-72
2022/01/14 06:43:04;;;;;;;15.10;10.60;;;;;;;3.20;88.61;100332.67;209073;1319;141301;-74
2022/01/14 06:48:08;;;;;;;20.10;10.90;;;;;;;3.21;88.53;100328.02;207014;1316;141773;-73
2022/01/14 06:53:11;;;;;;;13.20;9.20;;;;;;;3.23;88.44;100315.87;207882;1316;143802;-72
2022/01/14 06:58:15;;;;;;;14.10;8.80;;;;;;;3.19;88.82;100310.84;207504;1317;140735;-73
2022/01/14 07:03:45;;;;;;;16.50;11.30;;;;;;;3.16;88.78;100294.61;207518;1316;141708;-74
2022/01/14 07:08:51;;;;;;;17.70;10.70;;;;;;;3.15;88.82;100283.89;209043;1316;141016;-76
2022/01/14 07:13:55;;;;;;;17.40;11.40;;;;;;;3.16;89.12;100286.88;207589;1316;140383;-73
2022/01/14 07:18:58;;;;;;;17.70;10.90;;;;;;;3.22;88.73;100300.85;207946;1315;140578;-72
2022/01/14 07:24:05;;;;;;;17.40;10.50;;;;;;;3.23;88.75;100302.75;207211;1318;141237;-70
2022/01/14 07:29:13;;;;;;;16.20;9.40;;;;;;;3.20;88.84;100306.72;207057;1315;140252;-71
2022/01/14 07:34:19;;;;;;;16.00;10.20;;;;;;;3.17;88.81;100294.30;207434;1317;140606;-71
2022/01/14 07:39:23;;;;;;;18.20;11.00;;;;;;;3.16;89.01;100291.33;207313;1316;140360;-72
2022/01/14 07:44:27;;;;;;;16.80;10.60;;;;;;;3.18;89.14;100284.04;207876;1316;140143;-71
2022/01/14 07:49:31;;;;;;;13.00;10.70;;;;;;;3.20;89.04;100290.31;207125;1316;140359;-81
2022/01/14 07:54:38;;;;;;;13.40;8.60;;;;;;;3.22;89.15;100284.36;207673;1316;141451;-71
2022/01/14 07:59:42;;;;;;;17.60;12.90;;;;;;;3.22;88.99;100291.65;208015;1316;140163;-74
2022/01/14 08:04:49;;;;;;;12.20;9.50;;;;;;;3.25;89.14;100286.80;208293;1316;141278;-75
2022/01/14 08:09:53;;;;;;;19.40;11.60;;;;;;;3.28;89.16;100286.79;208078;1315;140868;-75
2022/01/14 08:14:57;;;;;;;16.20;10.90;;;;;;;3.31;89.00;100282.59;208017;1316;140488;-74
2022/01/14 08:20:04;;;;;;;11.80;8.00;;;;;;;3.36;89.07;100288.55;207235;1316;141952;-79
2022/01/14 08:25:14;;;;;;;16.30;10.20;;;;;;;3.36;89.08;100293.74;207001;1316;141170;-76
2022/01/14 08:30:18;;;;;;;17.80;10.80;;;;;;;3.33;89.04;100289.23;208734;1316;141219;-78
2022/01/14 08:35:24;;;;;;;16.10;10.90;;;;;;;3.37;89.12;100294.36;209350;1316;141578;-80
2022/01/14 08:40:28;;;;;;;18.10;11.40;;;;;;;3.40;89.08;100276.74;208158;1315;143112;-78
2022/01/14 08:45:39;;;;;;;14.70;10.90;;;;;;;3.44;88.79;100264.92;207854;1315;141445;-77
2022/01/14 08:50:42;;;;;;;17.70;11.60;;;;;;;3.42;89.10;100258.62;207897;1317;141702;-78
2022/01/14 08:55:46;;;;;;;15.80;10.40;;;;;;;3.44;88.88;100247.23;207007;1316;142044;-72
2022/01/14 09:00:49;;;;;;;14.70;11.40;;;;;;;3.45;88.98;100244.40;207646;1316;141508;-79
2022/01/14 09:05:52;;;;;;;21.80;11.70;;;;;;;3.44;89.25;100264.37;207577;1316;143870;-79
2022/01/14 09:11:01;;;;;;;15.80;11.10;;;;;;;3.49;89.08;100267.48;207478;1315;141209;-78
2022/01/14 09:16:11;;;;;;;16.60;12.30;;;;;;;3.51;89.02;100264.25;207966;1316;141640;-77
2022/01/14 09:21:16;;;;;;;16.40;10.20;;;;;;;3.49;88.93;100263.84;207149;1315;139729;-78
2022/01/14 09:26:20;;;;;;;21.80;12.20;;;;;;;3.51;88.95;100245.35;207284;1315;141682;-79
2022/01/14 09:31:27;;;;;;;16.40;8.80;;;;;;;3.47;88.83;100239.94;207620;1318;141201;-75
2022/01/14 09:36:32;;;;;;;15.10;10.30;;;;;;;3.46;89.06;100259.59;207317;1318;141729;-76
2022/01/14 09:41:59;;;;;;;16.10;10.10;;;;;;;3.45;89.01;100251.41;207111;1318;140278;-81
2022/01/14 09:47:03;;;;;;;17.50;10.10;;;;;;;3.45;89.15;100243.05;206934;1316;140301;-76
2022/01/14 09:52:06;;;;;;;28.80;13.50;;;;;;;3.53;89.32;100237.16;213272;1307;141839;-76
2022/01/14 09:57:12;;;;;;;17.30;12.30;;;;;;;3.59;89.22;100241.73;207538;1318;142639;-74
2022/01/14 10:03:19;;;;;;;15.60;10.50;;;;;;;3.57;89.09;100223.56;206859;1320;140401;-74
2022/01/14 10:08:30;;;;;;;19.20;11.90;;;;;;;3.61;89.40;100209.65;207141;1319;140756;-77
2022/01/14 10:13:37;;;;;;;20.40;12.40;;;;;;;3.66;89.16;100190.83;207156;1321;141084;-72
2022/01/14 10:18:50;;;;;;;21.60;12.70;;;;;;;3.69;89.30;100196.95;207361;1318;142363;-76
2022/01/14 10:23:54;;;;;;;19.20;12.50;;;;;;;3.74;89.41;100185.13;208130;1319;140706;-80
2022/01/14 10:29:12;;;;;;;19.80;12.00;;;;;;;3.78;89.34;100182.77;208733;1318;140919;-76
2022/01/14 10:34:19;;;;;;;20.90;12.40;;;;;;;3.85;89.37;100169.45;208862;1321;141454;-79
2022/01/14 10:39:28;;;;;;;16.60;9.40;;;;;;;3.91;89.15;100176.27;209567;1321;140348;-81
2022/01/14 10:44:36;;;;;;;17.00;11.70;;;;;;;3.98;89.52;100151.01;208637;1317;141242;-80
2022/01/14 10:49:42;;;;;;;16.90;12.40;;;;;;;4.08;89.33;100157.95;207522;1321;141807;-80
2022/01/14 10:54:56;;;;;;;14.70;10.50;;;;;;;4.11;89.05;100164.48;207371;1316;143031;-80
2022/01/14 11:00:19;;;;;;;16.00;10.80;;;;;;;4.08;89.11;100157.22;207669;1319;139856;-79
2022/01/14 11:05:24;;;;;;;14.50;8.80;;;;;;;4.09;89.03;100140.43;207553;1319;142384;-79
2022/01/14 11:10:46;;;;;;;16.50;10.80;;;;;;;4.05;89.00;100146.47;206281;1321;140297;-72
2022/01/14 11:15:50;;;;;;;14.00;10.50;;;;;;;4.00;88.94;100136.82;206846;1320;140795;-79
2022/01/14 11:26:19;;;;;;;12.60;8.30;;;;;;;4.05;89.16;100127.11;206476;1319;141394;-76
2022/01/14 11:31:44;;;;;;;15.90;9.00;;;;;;;4.03;89.19;100138.64;206763;1320;141146;-79
2022/01/14 11:37:18;;;;;;;;;;;;;;;;;;;;;
2022/01/14 11:43:08;;;;;;;9.90;7.10;;;;;;;4.01;89.25;100124.95;207499;1321;140906;-79
2022/01/14 11:48:53;;;;;;;8.80;6.30;;;;;;;4.00;89.31;100113.41;207398;1319;141437;-78
2022/01/14 11:54:11;;;;;;;12.50;7.90;;;;;;;4.02;89.36;100110.95;207246;1324;139705;-78
2022/01/14 11:59:21;;;;;;;11.80;8.90;;;;;;;4.04;89.34;100112.24;207237;1320;140940;-78
2022/01/14 12:05:04;;;;;;;12.10;7.00;;;;;;;4.03;89.03;100117.27;206755;1320;141530;-68
2022/01/14 12:10:17;;;;;;;8.40;6.30;;;;;;;4.02;88.83;100123.02;206624;1320;237242;-77
2022/01/14 12:15:58;;;;;;;11.70;7.50;;;;;;;3.97;88.85;100126.89;207854;1320;143037;-77
2022/01/14 12:21:04;;;;;;;10.10;7.00;;;;;;;3.95;89.28;100128.54;206583;1319;139966;-77
2022/01/14 12:26:42;;;;;;;8.10;6.30;;;;;;;3.98;89.02;100116.21;207401;1321;140796;-77
2022/01/14 12:32:09;;;;;;;12.60;8.10;;;;;;;4.02;89.14;100103.41;208678;1318;142018;-76
2022/01/14 12:37:58;;;;;;;6.50;5.80;;;;;;;4.06;89.27;100097.63;208463;1319;141741;-75
2022/01/14 12:43:04;;;;;;;7.20;6.50;;;;;;;4.13;89.08;100099.95;208018;1320;141993;-74
2022/01/14 12:48:17;;;;;;;11.50;7.50;;;;;;;4.13;88.65;100095.48;207365;1320;140441;-78
2022/01/14 12:53:24;;;;;;;8.10;5.90;;;;;;;4.17;89.01;100094.59;207016;1321;140172;-77
2022/01/14 12:58:30;;;;;;;4.80;3.80;;;;;;;4.17;88.87;100094.92;208163;1320;140962;-74
2022/01/14 13:03:34;;;;;;;15.70;5.30;;;;;;;4.17;89.02;100092.85;207085;1320;141221;-78
2022/01/14 13:08:57;;;;;;;6.50;5.60;;;;;;;4.19;89.09;100092.23;207076;1320;140815;-77
2022/01/14 13:14:03;;;;;;;6.40;5.40;;;;;;;4.21;88.99;100089.90;206633;1320;140069;-76
2022/01/14 13:19:30;;;;;;;6.00;4.40;;;;;;;4.22;89.31;100091.79;207144;1321;140251;-72
2022/01/14 13:24:41;;;;;;;8.90;7.90;;;;;;;4.27;89.08;100078.23;206647;1323;140699;-78
2022/01/14 13:30:04;;;;;;;8.00;5.50;;;;;;;4.28;89.41;100063.34;207166;1320;141443;-77
2022/01/14 13:35:24;;;;;;;5.60;3.80;;;;;;;4.28;89.37;100071.86;206435;1320;140741;-75
2022/01/14 13:40:32;;;;;;;5.50;5.00;;;;;;;4.31;89.39;100077.73;206489;1320;142278;-71
2022/01/14 13:45:41;;;;;;;5.50;4.60;;;;;;;4.34;89.07;100075.77;206979;1320;140840;-70
2022/01/14 13:50:47;;;;;;;7.20;4.10;;;;;;;4.33;89.13;100082.56;206622;1319;140285;-78
2022/01/14 13:56:14;;;;;;;5.00;4.10;;;;;;;4.33;89.18;100081.38;206280;1322;665476;-72
2022/01/14 14:01:18;;;;;;;7.00;4.30;;;;;;;4.35;89.13;100084.25;207100;1319;141835;-73
2022/01/14 14:06:59;;;;;;;4.70;4.30;;;;;;;4.35;89.38;100093.79;207270;1320;141348;-76
2022/01/14 14:12:44;;;;;;;7.70;6.90;;;;;;;4.38;89.13;100090.14;206848;1319;141799;-73
2022/01/14 14:18:12;;;;;;;9.00;6.10;;;;;;;4.44;89.43;100096.08;207266;1324;143278;-75
2022/01/14 14:23:41;;;;;;;7.50;4.50;;;;;;;4.45;89.16;100093.38;206547;1319;140956;-73
2022/01/14 14:28:49;;;;;;;10.90;5.70;;;;;;;4.48;89.33;100104.90;207311;1320;141828;-79
2022/01/14 14:33:54;;;;;;;9.60;7.10;;;;;;;4.53;89.39;100105.45;206970;1318;140264;-76
2022/01/14 14:39:02;;;;;;;7.40;6.30;;;;;;;4.58;89.42;100122.20;207389;1318;142046;-77
2022/01/14 14:44:09;;;;;;;7.10;6.10;;;;;;;4.59;89.42;100125.29;207629;1322;141625;-77
2022/01/14 14:49:13;;;;;;;13.10;5.90;;;;;;;4.62;88.89;100121.09;207679;1320;140246;-75
2022/01/14 14:54:17;;;;;;;9.00;5.80;;;;;;;4.64;89.12;100131.27;208607;1324;140710;-75
2022/01/14 14:59:28;;;;;;;10.50;6.00;;;;;;;4.65;88.88;100138.31;209202;1319;142143;-76
2022/01/14 15:04:42;;;;;;;5.70;5.00;;;;;;;4.73;89.08;100138.97;208696;1318;141681;-78
2022/01/14 15:09:48;;;;;;;7.10;5.70;;;;;;;4.73;88.97;100139.06;208661;1322;141216;-78
2022/01/14 15:15:20;;;;;;;;;;;;;;;4.74;88.49;100143.34;207768;1324;140974;-79
2022/01/14 15:20:29;;;;;;;5.80;5.20;;;;;;;4.72;88.53;100164.96;209441;1319;126833;-78
2022/01/14 15:25:42;;;;;;;4.80;4.40;;;;;;;4.73;88.57;100181.48;207730;1319;141119;-78
2022/01/14 15:30:47;;;;;;;8.90;5.70;;;;;;;4.77;88.66;100179.53;207682;1320;139744;-76
2022/01/14 15:36:16;;;;;;;5.50;4.60;;;;;;;4.77;88.37;100172.66;206676;1320;141133;-75
2022/01/14 15:41:23;;;;;;;8.40;4.20;;;;;;;4.78;88.30;100176.77;207573;1321;141480;-70
2022/01/14 15:46:42;;;;;;;8.90;4.90;;;;;;;4.72;88.61;100201.08;206442;1321;139929;-74
2022/01/14 15:52:06;;;;;;;13.80;6.40;;;;;;;4.76;88.73;100204.95;206531;1319;142871;-78
2022/01/14 15:57:11;;;;;;;5.90;5.40;;;;;;;4.77;88.32;100212.96;207238;1320;140881;-77
2022/01/14 16:02:17;;;;;;;5.00;4.00;;;;;;;4.76;88.12;100226.48;206507;1318;141291;-77
2022/01/14 16:07:25;;;;;;;3.70;3.40;;;;;;;4.69;88.00;100241.11;206932;1320;140985;-77
2022/01/14 16:12:44;;;;;;;4.40;2.90;;;;;;;4.61;87.94;100251.45;206136;1320;140251;-75
2022/01/14 16:17:58;;;;;;;;;;;;;;;;;;;;;
2022/01/14 16:23:11;;;;;;;7.00;4.20;;;;;;;4.48;87.80;100263.30;207558;1323;140615;-77
2022/01/14 16:28:14;;;;;;;5.90;3.20;;;;;;;4.37;87.59;100268.38;206703;1320;140320;-70
2022/01/14 16:33:44;;;;;;;10.20;3.50;;;;;;;4.32;87.55;100273.55;206685;1319;141378;-77
2022/01/14 16:39:07;;;;;;;4.70;4.10;;;;;;;4.25;87.02;100291.88;208536;1319;140666;-76
2022/01/14 16:44:14;;;;;;;5.00;2.70;;;;;;;4.17;86.69;100306.50;206611;1320;141753;-75
2022/01/14 16:49:37;;;;;;;;;;;;;;;;;;;;;
2022/01/14 16:54:42;;;;;;;7.10;2.40;;;;;;;4.00;85.86;100318.35;207290;1321;139919;-79
2022/01/14 16:59:48;;;;;;;6.10;3.20;;;;;;;3.93;85.33;100324.75;207298;1320;140820;-73
2022/01/14 17:04:52;;;;;;;4.00;1.50;;;;;;;3.85;84.94;100331.21;208767;1319;140919;-76
2022/01/14 17:09:56;;;;;;;6.20;2.90;;;;;;;3.77;85.01;100344.11;207616;1320;140480;-78
2022/01/14 17:15:01;;;;;;;9.30;3.30;;;;;;;3.72;84.65;100357.42;208597;1320;142733;-78
2022/01/14 17:20:05;;;;;;;11.20;4.20;;;;;;;3.65;84.60;100370.36;208198;1318;139631;-79
2022/01/14 17:25:17;;;;;;;9.20;3.90;;;;;;;3.58;84.84;100379.09;206966;1320;140634;-78
2022/01/14 17:30:33;;;;;;;6.10;3.60;;;;;;;3.53;84.54;100389.48;207442;1321;140242;-78
2022/01/14 17:35:38;;;;;;;11.10;4.00;;;;;;;3.45;84.42;100393.73;207515;1321;140034;-79
2022/01/14 17:40:41;;;;;;;6.20;3.00;;;;;;;3.37;84.43;100402.21;206792;1318;141352;-75
2022/01/14 17:45:45;;;;;;;12.20;4.20;;;;;;;3.31;84.35;100408.91;207197;1319;139545;-73
2022/01/14 17:50:52;;;;;;;8.60;3.90;;;;;;;3.24;84.32;100414.73;207002;1320;140811;-77
2022/01/14 17:55:59;;;;;;;10.80;3.40;;;;;;;3.16;84.00;100416.36;206833;1320;140257;-76
2022/01/14 18:01:05;;;;;;;17.10;4.90;;;;;;;3.10;83.62;100427.41;206587;1320;143166;-77
2022/01/14 18:06:16;;;;;;;13.20;5.10;;;;;;;3.07;83.78;100436.02;206508;1320;143708;-71
2022/01/14 18:11:25;;;;;;;10.00;2.90;;;;;;;3.01;83.80;100437.70;207400;1322;140735;-78
2022/01/14 18:16:30;;;;;;;18.00;3.70;;;;;;;2.93;83.51;100445.77;206655;1321;141404;-77
2022/01/14 18:21:34;;;;;;;9.40;4.10;;;;;;;2.91;83.38;100449.16;206698;1322;208222;-78
2022/01/14 18:26:43;;;;;;;9.40;4.70;;;;;;;2.87;83.57;100459.04;207991;1321;140875;-79
2022/01/14 18:31:46;;;;;;;7.80;3.40;;;;;;;2.81;83.29;100464.17;206427;1320;140385;-79
2022/01/14 18:36:53;;;;;;;11.70;3.40;;;;;;;2.78;83.00;100463.42;206348;1320;139979;-79
2022/01/14 18:41:59;;;;;;;20.50;5.20;;;;;;;2.74;83.17;100461.96;208219;1320;140206;-77
2022/01/14 18:47:03;;;;;;;11.90;5.50;;;;;;;2.69;82.97;100465.92;206261;1321;140339;-77
2022/01/14 18:52:34;;;;;;;7.90;3.20;;;;;;;2.65;82.80;100472.20;206991;1323;140238;-78
2022/01/14 18:57:51;;;;;;;;;;;;;;;;;;;;;
2022/01/14 19:02:56;;;;;;;10.80;3.80;;;;;;;2.56;82.95;100489.89;207624;1319;139703;-80
2022/01/14 19:08:02;;;;;;;13.80;3.30;;;;;;;2.51;82.86;100501.37;207716;1319;142963;-79
2022/01/14 19:13:16;;;;;;;13.90;4.90;;;;;;;2.50;82.95;100507.84;208541;1318;139996;-79
2022/01/14 19:18:24;;;;;;;8.30;3.30;;;;;;;2.49;82.95;100516.17;207504;1318;141622;-80
2022/01/14 19:23:30;;;;;;;12.50;3.80;;;;;;;2.44;82.69;100520.26;207025;1318;142995;-79
2022/01/14 19:28:35;;;;;;;14.20;4.20;;;;;;;2.41;82.85;100521.85;206784;1321;141604;-76
2022/01/14 19:33:38;;;;;;;12.30;3.70;;;;;;;2.37;82.97;100527.32;207667;1321;140278;-78
2022/01/14 19:38:47;;;;;;;9.50;3.80;;;;;;;2.32;82.98;100539.91;207327;1322;140028;-79
2022/01/14 19:43:51;;;;;;;15.40;5.30;;;;;;;2.26;82.62;100543.86;207860;1319;140596;-78
2022/01/14 19:48:55;;;;;;;11.40;4.70;;;;;;;2.24;82.77;100536.70;208095;1319;141380;-78
2022/01/14 19:54:00;;;;;;;14.80;5.00;;;;;;;2.23;82.93;100543.46;207300;1319;141597;-77
2022/01/14 19:59:16;;;;;;;18.20;5.30;;;;;;;2.20;82.67;100540.36;207140;1318;141514;-77
2022/01/14 20:04:23;;;;;;;12.60;4.50;;;;;;;2.14;82.86;100541.48;207160;1316;142196;-76
2022/01/14 20:09:42;;;;;;;;;;;;;;;;;;;;;
2022/01/14 20:14:50;;;;;;;13.20;7.20;;;;;;;2.02;82.81;100551.34;207624;1319;141560;-77
2022/01/14 20:19:58;;;;;;;17.50;7.70;;;;;;;1.95;82.78;100551.40;207134;1318;139645;-75
2022/01/14 20:25:10;;;;;;;10.20;4.50;;;;;;;1.90;83.46;100564.36;206974;1318;140033;-77
2022/01/14 20:30:17;;;;;;;17.10;4.60;;;;;;;1.87;83.16;100571.84;207184;1318;140845;-80
2022/01/14 20:35:21;;;;;;;12.30;4.30;;;;;;;1.83;83.32;100569.27;207228;1318;139943;-69
2022/01/14 20:40:24;;;;;;;14.00;5.20;;;;;;;1.76;83.19;100572.44;207091;1319;140324;-78
2022/01/14 20:45:29;;;;;;;13.70;4.30;;;;;;;1.72;83.31;100574.62;207525;1318;163765;-76
2022/01/14 20:50:39;;;;;;;16.90;5.40;;;;;;;1.69;82.99;100578.45;207384;1318;142036;-78
2022/01/14 20:55:46;;;;;;;12.00;3.90;;;;;;;1.65;83.29;100580.39;207370;1318;140722;-76
2022/01/14 21:00:49;;;;;;;13.10;4.10;;;;;;;1.60;83.28;100583.48;207210;1318;207549;-72
2022/01/14 21:05:51;;;;;;;9.50;4.90;;;;;;;1.60;83.44;100597.23;208408;1318;141499;-78
2022/01/14 21:10:59;;;;;;;17.20;5.30;;;;;;;1.59;82.95;100598.91;207556;1318;140710;-75
2022/01/14 21:16:03;;;;;;;13.90;4.90;;;;;;;1.55;83.14;100604.93;208026;1319;140305;-77
2022/01/14 21:21:23;;;;;;;16.30;5.80;;;;;;;1.50;83.10;100613.17;207280;1319;140383;-73
2022/01/14 21:26:26;;;;;;;12.50;3.80;;;;;;;1.47;83.25;100618.54;208192;1319;140416;-77
2022/01/14 21:31:29;;;;;;;18.50;8.60;;;;;;;1.46;83.12;100617.97;207302;1319;141541;-72
2022/01/14 21:36:39;;;;;;;13.20;4.10;;;;;;;1.45;83.37;100617.56;207950;1319;140116;-76
2022/01/14 21:41:43;;;;;;;13.50;3.60;;;;;;;1.42;83.25;100620.45;207511;1319;140561;-75
2022/01/14 21:46:49;;;;;;;21.90;4.70;;;;;;;1.40;83.01;100625.89;207527;1318;142735;-76
2022/01/14 21:51:57;;;;;;;9.60;4.20;;;;;;;1.39;82.79;100633.52;206895;1319;141801;-72
2022/01/14 21:57:04;;;;;;;15.40;5.00;;;;;;;1.36;83.22;100631.74;203557;1318;5536842;-70
2022/01/14 22:02:07;;;;;;;14.70;4.00;;;;;;;1.31;82.96;100638.00;207501;1321;143920;-76
2022/01/14 22:07:21;;;;;;;9.80;4.40;;;;;;;1.26;82.71;100641.77;207223;1321;140719;-71
2022/01/14 22:12:29;;;;;;;18.80;7.60;;;;;;;1.23;83.14;100637.19;206781;1321;140637;-78
2022/01/14 22:17:42;;;;;;;10.90;3.60;;;;;;;1.18;82.85;100634.05;207020;1320;140964;-77
2022/01/14 22:22:45;;;;;;;7.70;3.60;;;;;;;1.13;82.92;100634.04;206683;1321;140621;-79
2022/01/14 22:27:49;;;;;;;17.30;4.20;;;;;;;1.09;82.65;100637.58;207160;1321;139557;-74
2022/01/14 22:32:53;;;;;;;17.70;7.00;;;;;;;1.05;82.99;100646.04;207494;1321;141888;-79
2022/01/14 22:38:05;;;;;;;13.40;5.40;;;;;;;1.01;82.99;100643.97;206696;1320;141234;-74
2022/01/14 22:43:13;;;;;;;17.60;4.50;;;;;;;0.95;82.95;100650.51;206609;1320;142437;-76
2022/01/14 22:48:20;;;;;;;8.10;3.20;;;;;;;0.92;82.83;100650.09;207082;1320;140022;-73
2022/01/14 22:53:25;;;;;;;16.10;6.60;;;;;;;0.89;83.10;100655.86;206952;1319;139889;-73
2022/01/14 22:58:33;;;;;;;9.70;3.00;;;;;;;0.84;82.95;100655.60;206958;1319;141770;-75
2022/01/14 23:03:40;;;;;;;46.80;20.10;;;;;;;0.82;82.92;100652.66;207649;1320;141202;-75
2022/01/14 23:08:43;;;;;;;18.60;8.30;;;;;;;0.81;82.88;100656.92;207026;1319;142784;-72
2022/01/14 23:13:46;;;;;;;21.90;7.50;;;;;;;0.78;82.87;100654.59;207776;1319;140201;-74
2022/01/14 23:18:49;;;;;;;15.20;5.30;;;;;;;0.78;83.05;100656.00;208238;1318;140103;-74
2022/01/14 23:23:51;;;;;;;19.30;6.90;;;;;;;0.79;82.92;100661.91;208898;1318;140384;-74
2022/01/14 23:28:54;;;;;;;11.40;3.70;;;;;;;0.73;82.99;100660.21;206962;1319;142723;-73
2022/01/14 23:33:59;;;;;;;15.00;5.40;;;;;;;0.68;82.62;100664.85;207788;1316;141983;-73
2022/01/14 23:39:03;;;;;;;20.80;8.30;;;;;;;0.63;82.94;100668.33;208324;1320;141875;-74
2022/01/14 23:44:20;;;;;;;13.70;5.10;;;;;;;0.62;82.68;100668.88;208487;1318;142139;-73
2022/01/14 23:49:24;;;;;;;15.70;6.10;;;;;;;0.60;82.73;100657.06;206693;1318;141374;-71
2022/01/14 23:54:28;;;;;;;25.00;7.30;;;;;;;0.51;82.71;100648.67;207342;1319;140421;-72
2022/01/14 23:59:30;;;;;;;20.00;5.40;;;;;;;0.40;82.70;100650.64;207859;1318;141672;-73
